Terminal Aerodrome Forecast
Issued by NWS

Home | Current Version | Previous Version | Text Only | Print | Product List | Glossary On
Versions: 1 2 3 4 5 6 7 8 9 10 11 12 13 14 15 16 17 18 19 20 21 22 23 24 25 26 27 28 29 30 31 32
000
FTUS46 KLOX 171314 AAA
TAFLAX
TAF AMD
KLAX 171314Z 1713/1818 19003KT P6SM SCT014
      TEMPO 1714/1715 BKN014
     FM171600 25008KT P6SM FEW019
     FM172000 26012KT P6SM SKC
     FM180330 26008KT P6SM SKC
     FM180900 26006KT P6SM BKN010
     FM181300 VRB03KT P6SM BKN015=

USA.gov is the U.S. government's official web portal to all federal, state and local government web resources and services.